Time;durP1;ratioP1;P1;durP2;ratioP2;P2;SDS_P1;SDS_P2;PMS_P1;PMS_P2;Temp;Humidity;BMP_temperature;BMP_pressure;BME280_temperature;BME280_humidity;BME280_pressure;Samples;Min_cycle;Max_cycle;Signal;HPM_P1;HPM_P2
2021/09/28 00:02:30;;;;;;;9.32;7.40;;;;;;;16.19;98.69;96700.25;5229161;56;20121;-75
2021/09/28 00:07:33;;;;;;;12.95;7.88;;;;;;;16.33;98.06;96702.16;5236618;56;20122;-75
2021/09/28 00:12:35;;;;;;;8.63;7.07;;;;;;;16.39;97.84;96712.13;5237913;56;20105;-76
2021/09/28 00:17:38;;;;;;;11.30;7.60;;;;;;;16.32;97.83;96711.78;5243603;56;20728;-74
2021/09/28 00:22:41;;;;;;;11.85;7.75;;;;;;;16.15;98.17;96710.81;5255927;56;20190;-74
2021/09/28 00:27:43;;;;;;;10.80;8.05;;;;;;;16.04;98.62;96716.25;5257144;56;20218;-75
2021/09/28 00:32:46;;;;;;;9.07;7.68;;;;;;;15.95;99.13;96706.03;5266419;56;20219;-74
2021/09/28 00:37:48;;;;;;;10.95;7.97;;;;;;;15.87;99.38;96707.72;5255881;56;20520;-75
2021/09/28 00:42:51;;;;;;;16.17;8.40;;;;;;;15.91;98.66;96719.41;5258914;56;20118;-76
2021/09/28 00:47:53;;;;;;;13.77;8.20;;;;;;;15.79;99.24;96723.31;5259470;56;20240;-75
2021/09/28 00:52:57;;;;;;;10.82;8.00;;;;;;;15.76;99.65;96716.69;5259716;56;20112;-75
2021/09/28 00:58:02;;;;;;;14.43;8.70;;;;;;;15.74;99.78;96726.78;5251464;56;20126;-75
2021/09/28 01:03:07;;;;;;;12.77;7.97;;;;;;;15.76;99.72;96719.47;5257104;56;20113;-75
2021/09/28 01:08:10;;;;;;;12.90;7.97;;;;;;;15.77;99.11;96723.81;5266455;56;20117;-75
2021/09/28 01:13:12;;;;;;;10.57;7.85;;;;;;;15.90;98.83;96720.66;5267001;56;20144;-74
2021/09/28 01:18:17;;;;;;;10.95;8.23;;;;;;;15.89;99.35;96727.50;5267047;56;20165;-75
2021/09/28 01:23:19;;;;;;;12.23;8.15;;;;;;;15.95;99.38;96725.53;5258815;56;20087;-73
2021/09/28 01:28:22;;;;;;;11.43;8.30;;;;;;;16.07;98.50;96726.44;5257201;56;20121;-74
2021/09/28 01:33:25;;;;;;;12.77;7.97;;;;;;;16.13;98.44;96724.47;5256722;56;20122;-75
2021/09/28 01:38:28;;;;;;;9.85;7.60;;;;;;;16.19;97.96;96725.34;5257455;56;20121;-75
2021/09/28 01:43:30;;;;;;;11.02;7.60;;;;;;;16.25;97.51;96732.50;5258703;56;20122;-74
2021/09/28 01:48:52;;;;;;;10.43;8.40;;;;;;;16.38;97.04;96723.75;5257646;56;20683;-75
2021/09/28 01:53:54;;;;;;;11.98;8.32;;;;;;;16.36;97.25;96737.44;5256908;56;20134;-74
2021/09/28 01:58:58;;;;;;;10.60;7.95;;;;;;;16.39;97.51;96730.88;5256239;56;20316;-75
2021/09/28 02:04:01;;;;;;;11.80;8.50;;;;;;;16.40;97.01;96726.81;5256010;56;20091;-76
2021/09/28 02:09:05;;;;;;;10.80;7.80;;;;;;;16.41;96.88;96729.13;5255884;56;20122;-75
2021/09/28 02:14:08;;;;;;;10.05;7.55;;;;;;;16.40;96.59;96726.81;5258459;56;20143;-75
2021/09/28 02:19:14;;;;;;;12.65;7.75;;;;;;;16.26;97.63;96727.69;5259327;56;20180;-74
2021/09/28 02:24:16;;;;;;;10.68;7.95;;;;;;;16.21;97.58;96731.97;5260746;56;20087;-75
2021/09/28 02:29:19;;;;;;;9.27;7.60;;;;;;;16.27;96.80;96734.78;5262661;56;20198;-75
2021/09/28 02:34:21;;;;;;;9.05;6.60;;;;;;;16.15;96.98;96724.75;5262427;56;20125;-74
2021/09/28 02:39:23;;;;;;;8.95;7.13;;;;;;;16.05;97.45;96731.75;5270450;56;20103;-75
2021/09/28 02:44:26;;;;;;;11.32;7.15;;;;;;;16.05;96.87;96717.81;5273630;56;20248;-75
2021/09/28 02:49:28;;;;;;;8.85;7.07;;;;;;;15.99;96.86;96719.78;5261602;56;20147;-75
2021/09/28 02:54:31;;;;;;;8.48;6.57;;;;;;;15.87;97.23;96729.25;5260480;56;20113;-75
2021/09/28 02:59:33;;;;;;;10.52;7.10;;;;;;;15.78;97.65;96730.91;5258757;56;20126;-73
2021/09/28 03:04:36;;;;;;;10.13;7.20;;;;;;;15.62;98.51;96742.59;5259149;56;20078;-75
2021/09/28 03:09:38;;;;;;;7.95;6.63;;;;;;;15.50;99.47;96745.69;5257678;56;20135;-74
2021/09/28 03:14:40;;;;;;;9.32;6.53;;;;;;;15.42;99.03;96756.47;5258501;56;20134;-75
2021/09/28 03:19:43;;;;;;;9.20;6.80;;;;;;;15.39;99.88;96751.09;5259439;56;20118;-74
2021/09/28 03:24:45;;;;;;;9.77;6.57;;;;;;;15.33;100.00;96736.31;5264872;56;20198;-75
2021/09/28 03:29:50;;;;;;;10.30;6.45;;;;;;;15.23;99.61;96744.00;5259197;56;20121;-75
2021/09/28 03:34:52;;;;;;;10.07;6.90;;;;;;;15.16;99.92;96747.19;5258558;56;20125;-75
2021/09/28 03:39:54;;;;;;;9.35;6.70;;;;;;;15.04;99.98;96742.69;5259334;56;20117;-75
2021/09/28 03:44:57;;;;;;;10.88;6.07;;;;;;;15.01;99.59;96754.78;5254578;56;20131;-75
2021/09/28 03:50:00;;;;;;;9.50;7.38;;;;;;;14.91;100.00;96767.25;5257539;56;20086;-75
2021/09/28 03:55:04;;;;;;;8.07;6.03;;;;;;;14.80;100.00;96767.84;5249472;56;20126;-75
2021/09/28 04:00:07;;;;;;;7.38;5.80;;;;;;;14.81;100.00;96768.63;5256881;56;20220;-75
2021/09/28 04:05:10;;;;;;;8.23;6.45;;;;;;;14.66;100.00;96773.38;5257026;56;20122;-75
2021/09/28 04:10:13;;;;;;;8.63;6.18;;;;;;;14.67;100.00;96781.28;5263336;56;20095;-74
2021/09/28 04:15:16;;;;;;;8.23;6.80;;;;;;;14.53;100.00;96787.56;5263039;56;20281;-75
2021/09/28 04:20:19;;;;;;;10.30;7.45;;;;;;;14.50;100.00;96791.31;5266593;56;20182;-76
2021/09/28 04:25:22;;;;;;;12.43;8.93;;;;;;;14.80;100.00;96806.03;5268923;56;20110;-75
2021/09/28 04:30:30;;;;;;;12.75;8.80;;;;;;;14.83;100.00;96805.84;5273046;56;20117;-75
2021/09/28 04:35:33;;;;;;;11.95;8.73;;;;;;;14.96;100.00;96820.25;5267102;56;20128;-75
2021/09/28 04:40:35;;;;;;;13.75;9.98;;;;;;;15.20;100.00;96817.34;5266314;56;20259;-75
2021/09/28 04:45:38;;;;;;;13.35;9.05;;;;;;;15.30;100.00;96816.00;5264626;56;20121;-75
2021/09/28 04:50:40;;;;;;;11.40;8.63;;;;;;;15.43;100.00;96833.19;5272666;56;20117;-75
2021/09/28 04:55:43;;;;;;;12.73;8.32;;;;;;;15.47;100.00;96822.63;5270315;56;20100;-76
2021/09/28 05:00:45;;;;;;;11.35;7.88;;;;;;;15.56;100.00;96828.09;5262711;56;20104;-75
2021/09/28 05:05:47;;;;;;;15.18;8.63;;;;;;;15.69;99.69;96831.34;5261636;56;20126;-75
2021/09/28 05:10:50;;;;;;;9.68;7.63;;;;;;;15.71;99.55;96830.88;5260948;56;20572;-75
2021/09/28 05:15:52;;;;;;;11.35;8.02;;;;;;;15.67;100.00;96828.25;5261307;56;20087;-75
2021/09/28 05:20:55;;;;;;;12.18;7.32;;;;;;;15.85;99.48;96837.66;5261257;56;20202;-75
2021/09/28 05:25:58;;;;;;;13.35;9.02;;;;;;;15.92;98.87;96842.84;5262018;56;20121;-75
2021/09/28 05:31:00;;;;;;;12.20;7.25;;;;;;;16.03;98.85;96846.53;5263381;56;20218;-75
2021/09/28 05:36:04;;;;;;;9.98;7.30;;;;;;;16.11;98.16;96844.09;5269883;56;20104;-75
2021/09/28 05:41:09;;;;;;;11.05;7.57;;;;;;;16.21;97.35;96854.66;5264040;56;20214;-74
2021/09/28 05:46:12;;;;;;;9.98;7.55;;;;;;;16.21;97.28;96851.09;5263480;56;20684;-75
2021/09/28 05:51:19;;;;;;;10.60;7.28;;;;;;;16.30;97.69;96862.13;5254986;56;20131;-75
2021/09/28 05:56:22;;;;;;;10.68;7.80;;;;;;;16.35;96.70;96869.78;5271033;56;20131;-75
2021/09/28 06:01:25;;;;;;;13.27;7.22;;;;;;;16.66;94.77;96872.75;5249858;56;20176;-74
2021/09/28 06:06:27;;;;;;;11.77;7.53;;;;;;;16.46;95.64;96872.72;5240145;56;20083;-75
2021/09/28 06:11:30;;;;;;;6.13;5.00;;;;;;;16.08;96.66;96896.03;5239365;56;20096;-75
2021/09/28 06:16:34;;;;;;;4.65;3.75;;;;;;;15.90;96.13;96889.94;5242472;56;20105;-75
2021/09/28 06:21:36;;;;;;;3.30;3.00;;;;;;;15.62;97.94;96898.63;5241503;56;20113;-76
2021/09/28 06:26:43;;;;;;;3.53;2.85;;;;;;;15.63;97.51;96902.16;5240889;56;20108;-75
2021/09/28 06:31:47;;;;;;;3.47;3.17;;;;;;;15.50;97.27;96891.31;5232733;56;20088;-75
2021/09/28 06:36:51;;;;;;;5.60;2.22;;;;;;;15.65;96.61;96896.84;5241320;56;20154;-75
2021/09/28 06:41:54;;;;;;;3.28;2.30;;;;;;;15.60;95.09;96897.56;5236405;56;20201;-74
2021/09/28 06:46:57;;;;;;;7.22;1.70;;;;;;;15.62;93.46;96918.13;5231225;56;20113;-75
2021/09/28 06:51:59;;;;;;;0.90;0.90;;;;;;;15.53;89.66;96920.22;5238837;56;20123;-75
2021/09/28 06:57:02;;;;;;;0.65;0.65;;;;;;;15.51;89.51;96937.41;5237345;56;20127;-75
2021/09/28 07:02:04;;;;;;;0.95;0.70;;;;;;;15.46;90.29;96924.16;5235490;56;20117;-75
2021/09/28 07:07:07;;;;;;;0.90;0.90;;;;;;;15.58;90.00;96928.66;5243519;56;20661;-75
2021/09/28 07:12:10;;;;;;;1.25;1.15;;;;;;;15.72;89.86;96922.31;5241818;56;20185;-75
2021/09/28 07:17:12;;;;;;;1.02;1.00;;;;;;;15.55;91.11;96932.44;5235111;56;20122;-75
2021/09/28 07:22:15;;;;;;;1.15;0.90;;;;;;;15.81;92.16;96931.84;5234568;56;22156;-74
2021/09/28 07:27:17;;;;;;;0.70;0.70;;;;;;;15.69;91.11;96939.25;5234989;56;20115;-75
2021/09/28 07:32:21;;;;;;;0.70;0.70;;;;;;;15.42;90.44;96945.84;5234407;56;20728;-75
2021/09/28 07:37:27;;;;;;;0.60;0.60;;;;;;;15.58;90.94;96939.06;5234459;56;20104;-74
2021/09/28 07:42:30;;;;;;;0.70;0.70;;;;;;;15.56;90.27;96945.09;5230369;56;20232;-74
2021/09/28 07:47:33;;;;;;;0.70;0.70;;;;;;;15.73;90.84;96942.59;5223247;56;20114;-74
2021/09/28 07:52:35;;;;;;;1.52;0.75;;;;;;;16.14;92.17;96954.66;5229092;56;20144;-74
2021/09/28 07:57:38;;;;;;;3.38;0.85;;;;;;;16.09;90.65;96958.13;5221136;56;20118;-75
2021/09/28 08:02:41;;;;;;;0.88;0.82;;;;;;;16.11;89.71;96955.63;5221222;56;20666;-75
2021/09/28 08:07:43;;;;;;;0.75;0.75;;;;;;;15.89;88.76;96960.84;5228025;56;20118;-75
2021/09/28 08:12:46;;;;;;;0.63;0.63;;;;;;;15.65;88.68;96961.72;5221641;56;20132;-74
2021/09/28 08:17:48;;;;;;;0.90;0.90;;;;;;;15.72;89.31;96963.34;5213979;56;20140;-76
2021/09/28 08:22:51;;;;;;;0.90;0.90;;;;;;;16.08;85.74;96956.63;5234024;56;20119;-75
2021/09/28 08:33:15;;;;;;;0.90;0.90;;;;;;;16.56;83.81;96963.44;5223672;56;20118;-75
2021/09/28 08:38:17;;;;;;;1.77;1.00;;;;;;;16.69;84.35;96955.47;5218701;56;20118;-72
2021/09/28 08:43:19;;;;;;;4.53;0.93;;;;;;;16.44;82.82;96954.09;5226141;56;20186;-76
2021/09/28 08:48:22;;;;;;;1.20;1.10;;;;;;;16.15;85.55;96948.59;5211034;56;20176;-74
2021/09/28 08:53:24;;;;;;;0.90;0.90;;;;;;;16.60;84.54;96963.22;5220395;56;20577;-74
2021/09/28 08:58:28;;;;;;;1.00;1.00;;;;;;;17.74;79.67;96956.69;5224788;56;20756;-74
2021/09/28 09:03:35;;;;;;;1.27;0.90;;;;;;;17.19;78.24;96959.66;5219110;56;20125;-73
2021/09/28 09:08:38;;;;;;;1.02;1.02;;;;;;;17.55;79.18;96968.72;5225573;56;20787;-73
2021/09/28 09:13:44;;;;;;;2.38;1.30;;;;;;;16.89;81.86;96958.28;5219479;56;20132;-74
2021/09/28 09:18:49;;;;;;;2.67;1.40;;;;;;;16.69;82.86;96949.91;5224441;56;20622;-73
2021/09/28 09:23:53;;;;;;;1.65;1.42;;;;;;;16.15;82.40;96947.81;5223796;56;20831;-73
2021/09/28 09:28:58;;;;;;;2.10;1.90;;;;;;;16.05;82.86;96949.22;5223388;56;20114;-75
2021/09/28 09:34:11;;;;;;;1.50;1.45;;;;;;;16.07;84.14;96949.47;5228660;56;20224;-74
2021/09/28 09:39:13;;;;;;;1.40;1.30;;;;;;;16.10;84.56;96949.28;5230978;56;20113;-74
2021/09/28 09:44:16;;;;;;;1.67;1.58;;;;;;;15.52;87.19;96943.75;5219216;56;20113;-74
2021/09/28 09:49:28;;;;;;;3.70;2.60;;;;;;;15.65;82.08;96950.56;5225424;56;20109;-74
2021/09/28 09:54:40;;;;;;;4.80;2.78;;;;;;;15.52;81.96;96944.53;5216904;56;20123;-75
2021/09/28 09:59:42;;;;;;;2.90;2.60;;;;;;;15.46;80.44;96934.53;5226504;56;20786;-75
2021/09/28 10:04:47;;;;;;;2.97;2.67;;;;;;;15.75;79.90;96926.16;5229826;56;20162;-74
2021/09/28 10:09:49;;;;;;;2.92;2.20;;;;;;;16.31;78.60;96925.78;5226017;56;20190;-74
2021/09/28 10:15:05;;;;;;;2.45;2.30;;;;;;;16.71;75.50;96913.16;5232193;56;20191;-76
2021/09/28 10:20:20;;;;;;;3.17;2.67;;;;;;;16.75;75.09;96908.88;5226194;56;20113;-75
2021/09/28 10:25:26;;;;;;;2.90;2.22;;;;;;;17.23;72.84;96909.94;5226061;56;20357;-74
2021/09/28 10:30:28;;;;;;;8.05;2.83;;;;;;;17.14;73.83;96907.28;5227379;56;20182;-75
2021/09/28 10:35:34;;;;;;;4.68;2.75;;;;;;;17.14;74.55;96907.28;5228204;56;20127;-74
2021/09/28 10:40:37;;;;;;;2.88;2.30;;;;;;;17.58;75.66;96895.81;5234929;56;20634;-75
2021/09/28 10:45:39;;;;;;;2.20;2.00;;;;;;;17.59;74.80;96902.19;5236711;56;20118;-75
2021/09/28 10:50:46;;;;;;;2.20;1.67;;;;;;;17.62;74.30;96903.97;5231268;56;20249;-74
2021/09/28 10:56:11;;;;;;;2.75;1.60;;;;;;;17.95;70.70;96897.91;5208159;56;20131;-74
2021/09/28 11:01:14;;;;;;;1.73;1.38;;;;;;;17.33;72.93;96884.63;5225065;56;20711;-74
2021/09/28 11:06:50;;;;;;;1.90;1.42;;;;;;;18.11;71.12;96884.03;5225348;56;20145;-74
2021/09/28 11:11:56;;;;;;;1.33;1.23;;;;;;;19.13;68.11;96873.59;5225489;56;20274;-76
2021/09/28 11:17:01;;;;;;;1.30;1.30;;;;;;;19.41;66.08;96865.22;5230122;56;20157;-75
2021/09/28 11:22:06;;;;;;;2.13;1.98;;;;;;;19.55;63.58;96856.59;5225448;56;20113;-75
2021/09/28 11:27:10;;;;;;;2.58;2.33;;;;;;;18.79;65.93;96855.16;5221793;56;20117;-74
2021/09/28 11:32:13;;;;;;;3.08;2.63;;;;;;;18.57;68.48;96853.00;5236112;56;20157;-75
2021/09/28 11:37:16;;;;;;;2.60;2.40;;;;;;;18.01;69.60;96845.56;5243692;56;20126;-76
2021/09/28 11:42:19;;;;;;;3.95;3.17;;;;;;;17.89;69.86;96839.13;5233382;56;20746;-74
2021/09/28 11:47:24;;;;;;;2.78;2.53;;;;;;;18.04;70.99;96842.53;5232726;56;20232;-74
2021/09/28 11:52:28;;;;;;;5.75;3.50;;;;;;;18.24;67.76;96834.00;5225321;56;20127;-75
2021/09/28 11:57:31;;;;;;;3.53;2.67;;;;;;;18.35;70.87;96836.88;5224511;56;20698;-75
2021/09/28 12:02:34;;;;;;;2.55;2.35;;;;;;;18.03;68.61;96838.19;5224053;56;20129;-75
2021/09/28 12:12:46;;;;;;;2.65;2.33;;;;;;;18.33;69.64;96817.00;5203869;56;20114;-75
2021/09/28 12:17:49;;;;;;;3.47;2.72;;;;;;;18.40;67.29;96813.75;5199822;56;20222;-75
2021/09/28 12:22:59;;;;;;;2.95;2.50;;;;;;;18.60;67.20;96824.78;5193184;56;20127;-75
2021/09/28 12:28:13;;;;;;;3.08;2.70;;;;;;;18.43;68.04;96801.53;5195654;56;20132;-76
2021/09/28 12:33:16;;;;;;;2.83;2.35;;;;;;;18.88;65.34;96793.31;5213856;56;20476;-76
2021/09/28 12:38:18;;;;;;;2.80;2.28;;;;;;;19.60;63.82;96782.94;5211323;56;20156;-75
2021/09/28 12:43:21;;;;;;;2.88;2.42;;;;;;;19.72;63.03;96778.81;5206838;56;20655;-75
2021/09/28 12:48:34;;;;;;;4.40;3.10;;;;;;;19.52;64.59;96767.88;5233254;56;20772;-76
2021/09/28 12:53:38;;;;;;;4.40;2.33;;;;;;;19.30;64.40;96759.47;5234536;56;20116;-75
2021/09/28 12:58:40;;;;;;;3.83;2.72;;;;;;;19.27;64.32;96744.44;5243256;56;20116;-76
2021/09/28 13:03:43;;;;;;;3.95;3.00;;;;;;;19.24;67.45;96739.09;5243395;56;20117;-75
2021/09/28 13:08:45;;;;;;;4.40;2.40;;;;;;;19.25;68.51;96738.59;5225633;56;20112;-76
2021/09/28 13:13:51;;;;;;;4.28;2.78;;;;;;;19.15;66.44;96742.16;5230556;56;20113;-75
2021/09/28 13:18:55;;;;;;;2.58;2.38;;;;;;;18.67;66.83;96747.19;5233843;56;20121;-75
2021/09/28 13:23:58;;;;;;;2.53;2.30;;;;;;;19.29;67.35;96727.13;5233954;56;20104;-75
2021/09/28 13:29:01;;;;;;;5.38;2.85;;;;;;;19.07;66.61;96718.72;5225495;56;20626;-76
2021/09/28 13:34:03;;;;;;;3.13;2.40;;;;;;;19.58;64.81;96721.00;5225649;56;20247;-75
2021/09/28 13:39:07;;;;;;;3.28;2.95;;;;;;;19.45;63.94;96722.81;5233717;56;20320;-75
2021/09/28 13:44:09;;;;;;;3.58;2.80;;;;;;;19.27;64.05;96710.03;5229892;56;20215;-75
2021/09/28 13:49:12;;;;;;;5.03;2.47;;;;;;;19.50;65.04;96708.78;5220337;56;20104;-75
2021/09/28 13:54:14;;;;;;;3.35;2.28;;;;;;;18.96;68.72;96699.88;5242661;56;20121;-75
2021/09/28 13:59:17;;;;;;;2.88;2.67;;;;;;;19.14;65.25;96696.56;5233283;56;20109;-75
2021/09/28 14:04:20;;;;;;;3.13;2.42;;;;;;;18.72;67.32;96698.84;5223743;56;20255;-76
2021/09/28 14:09:22;;;;;;;2.20;2.00;;;;;;;19.01;69.35;96681.53;5226637;56;20113;-76
2021/09/28 14:14:25;;;;;;;2.55;1.80;;;;;;;19.12;66.31;96675.94;5233250;56;20257;-75
2021/09/28 14:19:27;;;;;;;2.50;2.30;;;;;;;18.86;69.84;96681.03;5232618;56;20252;-74
2021/09/28 14:24:30;;;;;;;2.22;2.10;;;;;;;18.67;70.37;96680.00;5235615;56;20579;-75
2021/09/28 14:29:33;;;;;;;3.90;2.50;;;;;;;18.73;69.38;96664.72;5241885;56;20187;-75
2021/09/28 14:34:35;;;;;;;3.33;2.60;;;;;;;18.55;70.73;96674.38;5223704;56;20121;-76
2021/09/28 14:39:37;;;;;;;4.00;2.15;;;;;;;18.41;70.97;96664.16;5228929;56;20636;-76
2021/09/28 14:44:41;;;;;;;3.20;2.22;;;;;;;18.14;73.80;96666.88;5232852;56;20108;-75
2021/09/28 14:49:43;;;;;;;4.85;2.30;;;;;;;18.13;72.81;96656.97;5232558;56;20120;-75
2021/09/28 14:54:46;;;;;;;2.70;2.42;;;;;;;18.09;74.31;96639.66;5218377;56;20125;-75
2021/09/28 14:59:48;;;;;;;3.17;2.20;;;;;;;17.74;74.31;96640.81;5224004;56;20108;-76
2021/09/28 15:04:51;;;;;;;5.03;3.10;;;;;;;17.70;74.59;96633.94;5224369;56;20164;-75
2021/09/28 15:09:53;;;;;;;4.13;2.85;;;;;;;17.55;75.60;96638.97;5223009;56;20192;-75
2021/09/28 15:14:56;;;;;;;3.28;2.45;;;;;;;17.41;76.87;96639.88;5241427;56;20665;-75
2021/09/28 15:19:58;;;;;;;3.65;3.35;;;;;;;17.62;77.20;96639.22;5231951;56;20247;-75
2021/09/28 15:25:05;;;;;;;4.10;3.80;;;;;;;17.56;74.09;96635.66;5232500;56;20563;-75
2021/09/28 15:30:11;;;;;;;6.15;3.88;;;;;;;17.37;74.60;96626.13;5223568;56;20222;-75
2021/09/28 15:35:14;;;;;;;6.05;3.85;;;;;;;17.20;75.35;96631.63;5238924;56;20196;-75
2021/09/28 15:40:19;;;;;;;5.18;4.20;;;;;;;17.09;75.76;96630.78;5223868;56;20121;-75
2021/09/28 15:45:21;;;;;;;7.43;3.83;;;;;;;17.14;75.95;96628.03;5232086;56;20216;-76
2021/09/28 15:50:23;;;;;;;5.93;4.15;;;;;;;17.17;75.19;96627.03;5231922;56;20108;-75
2021/09/28 15:55:26;;;;;;;4.60;4.10;;;;;;;16.97;76.02;96623.59;5233857;56;20126;-75
2021/09/28 16:00:28;;;;;;;4.50;4.10;;;;;;;17.00;76.63;96606.63;5210939;56;20658;-75
2021/09/28 16:05:31;;;;;;;7.22;3.88;;;;;;;17.20;78.06;96614.88;5201993;56;20148;-75
2021/09/28 16:10:33;;;;;;;4.35;3.95;;;;;;;17.10;78.89;96599.56;5206377;56;20103;-75
2021/09/28 16:15:36;;;;;;;4.28;3.83;;;;;;;16.99;77.87;96602.28;5223172;56;20205;-74
2021/09/28 16:20:38;;;;;;;3.95;3.30;;;;;;;17.08;78.75;96607.69;5223329;56;20126;-75
2021/09/28 16:25:41;;;;;;;4.65;3.70;;;;;;;17.05;78.25;96603.09;5214073;56;20394;-76
2021/09/28 16:30:44;;;;;;;4.53;3.17;;;;;;;17.09;80.34;96600.06;5239781;56;20192;-74
2021/09/28 16:35:47;;;;;;;4.40;3.13;;;;;;;16.83;80.19;96593.81;5231002;56;20126;-76
2021/09/28 16:40:49;;;;;;;2.95;2.75;;;;;;;16.87;81.05;96583.94;5210169;56;20185;-75
2021/09/28 16:45:52;;;;;;;4.55;2.85;;;;;;;16.94;81.00;96586.28;5231518;56;20761;-73
2021/09/28 16:50:56;;;;;;;4.43;3.05;;;;;;;16.73;81.75;96590.47;5199647;56;20117;-75
2021/09/28 16:55:58;;;;;;;4.55;3.30;;;;;;;16.88;82.46;96593.09;5196542;56;20109;-76
2021/09/28 17:01:02;;;;;;;3.67;3.10;;;;;;;16.65;81.70;96592.16;5209533;56;20297;-76
2021/09/28 17:06:04;;;;;;;3.60;2.92;;;;;;;16.69;81.30;96591.94;5196658;56;20690;-73
2021/09/28 17:11:07;;;;;;;3.30;2.85;;;;;;;16.58;82.18;96580.72;5204974;56;20157;-74
2021/09/28 17:16:09;;;;;;;3.20;3.00;;;;;;;16.48;82.45;96583.66;5224344;56;20134;-74
2021/09/28 17:21:12;;;;;;;3.17;2.97;;;;;;;16.57;83.34;96588.31;5225643;56;20656;-75
2021/09/28 17:26:15;;;;;;;3.70;2.80;;;;;;;16.51;83.32;96581.16;5228281;56;20676;-76
2021/09/28 17:31:18;;;;;;;3.45;2.92;;;;;;;16.55;81.78;96582.47;5223881;56;20113;-74
2021/09/28 17:36:22;;;;;;;3.33;3.10;;;;;;;16.56;81.71;96572.81;5226411;56;20671;-75
2021/09/28 17:41:24;;;;;;;3.08;2.88;;;;;;;16.52;83.93;96572.28;5206950;56;20122;-75
2021/09/28 17:46:27;;;;;;;3.63;3.33;;;;;;;16.55;83.81;96578.91;5211930;56;20132;-75
2021/09/28 17:51:29;;;;;;;3.97;3.63;;;;;;;16.31;83.51;96579.16;5222604;56;20742;-75
2021/09/28 18:01:54;;;;;;;4.30;3.92;;;;;;;16.43;84.22;96587.16;5215774;56;20466;-75
2021/09/28 18:06:57;;;;;;;4.57;3.97;;;;;;;16.47;84.70;96584.13;5205453;56;20122;-75
2021/09/28 18:12:00;;;;;;;4.20;3.80;;;;;;;16.49;85.11;96590.75;5205033;56;20117;-75
2021/09/28 18:17:03;;;;;;;4.18;3.78;;;;;;;16.53;84.47;96587.00;5216869;56;20214;-75
2021/09/28 18:22:05;;;;;;;5.07;4.45;;;;;;;16.46;84.63;96596.56;5206776;56;20157;-75
2021/09/28 18:27:08;;;;;;;4.95;4.55;;;;;;;16.37;85.46;96591.91;5218473;56;20556;-75
2021/09/28 18:32:12;;;;;;;6.10;5.50;;;;;;;16.53;85.71;96592.59;5220365;56;20281;-76
2021/09/28 18:37:31;;;;;;;5.85;5.38;;;;;;;16.43;85.82;96578.00;5217273;56;20126;-76
2021/09/28 18:42:41;;;;;;;7.07;6.45;;;;;;;16.38;86.44;96576.69;5214424;56;20241;-75
2021/09/28 18:47:45;;;;;;;8.23;7.35;;;;;;;16.23;86.88;96572.50;5218121;56;20558;-76
2021/09/28 18:52:47;;;;;;;7.50;6.72;;;;;;;16.34;86.60;96564.25;5232235;56;20635;-78
2021/09/28 18:57:57;;;;;;;7.88;7.03;;;;;;;16.35;86.39;96563.00;5230134;56;20114;-75
2021/09/28 19:03:03;;;;;;;7.78;6.70;;;;;;;16.31;86.82;96565.22;5215821;56;20330;-76
2021/09/28 19:08:11;;;;;;;8.90;7.63;;;;;;;16.25;86.58;96567.97;5228014;56;20112;-76
2021/09/28 19:13:13;;;;;;;7.60;6.75;;;;;;;16.30;86.75;96560.91;5215666;56;20214;-75
2021/09/28 19:18:16;;;;;;;7.28;6.57;;;;;;;16.25;87.10;96559.63;5211423;56;20248;-75
2021/09/28 19:23:18;;;;;;;7.18;6.47;;;;;;;16.20;86.54;96565.91;5221102;56;20158;-79
2021/09/28 19:28:21;;;;;;;8.23;5.97;;;;;;;16.15;86.63;96561.03;5218068;56;20625;-77
2021/09/28 19:33:23;;;;;;;6.53;5.93;;;;;;;16.22;86.30;96557.81;5227175;56;20126;-78
2021/09/28 19:38:27;;;;;;;8.65;5.68;;;;;;;16.27;85.59;96545.94;5223387;56;20556;-78
2021/09/28 19:43:32;;;;;;;5.93;5.45;;;;;;;16.33;85.72;96543.19;5216200;56;20108;-76
2021/09/28 19:48:35;;;;;;;5.53;5.07;;;;;;;16.23;85.95;96548.19;5227132;56;20126;-75
2021/09/28 19:53:38;;;;;;;6.50;5.68;;;;;;;16.24;85.56;96541.34;5204830;56;20122;-77
2021/09/28 20:36:08;;;;;;;4.60;4.20;;;;;;;16.19;86.76;96503.00;5211256;56;20785;-75
2021/09/28 20:41:13;;;;;;;4.50;4.10;;;;;;;16.28;88.08;96490.94;5223018;56;20109;-75
2021/09/28 20:46:17;;;;;;;5.03;4.38;;;;;;;16.17;87.83;96485.28;5216135;56;20208;-76
2021/09/28 20:51:20;;;;;;;5.15;4.60;;;;;;;16.21;87.63;96480.22;5203815;56;20114;-77
2021/09/28 20:56:24;;;;;;;4.57;4.18;;;;;;;16.09;88.42;96478.59;5201820;56;20109;-77
2021/09/28 21:01:27;;;;;;;5.15;4.75;;;;;;;16.19;88.37;96466.75;5213637;56;20725;-77
2021/09/28 21:06:29;;;;;;;5.05;4.53;;;;;;;16.24;88.29;96460.47;5208028;56;20127;-75
2021/09/28 21:11:32;;;;;;;6.07;4.93;;;;;;;16.10;89.36;96463.44;5204591;56;20594;-75
2021/09/28 21:16:36;;;;;;;5.15;4.75;;;;;;;16.06;88.73;96460.84;5221048;56;20110;-74
2021/09/28 21:21:38;;;;;;;6.53;5.03;;;;;;;16.04;89.35;96459.81;5200361;56;20306;-75
2021/09/28 21:26:46;;;;;;;5.55;4.85;;;;;;;16.18;88.98;96461.69;5213784;56;20111;-76
2021/09/28 21:31:49;;;;;;;5.38;4.53;;;;;;;16.19;88.99;96463.25;5201992;56;20122;-76
2021/09/28 21:36:58;;;;;;;5.72;5.13;;;;;;;16.26;89.45;96460.00;5221820;56;20635;-76
2021/09/28 21:42:01;;;;;;;;;;;;;;;16.33;89.44;96465.09;5213984;56;20117;-75
2021/09/28 21:47:04;;;;;;;5.15;4.65;;;;;;;16.14;90.15;96458.38;5222338;56;19966;-75
2021/09/28 21:52:06;;;;;;;4.65;4.25;;;;;;;16.31;89.67;96460.03;5222526;56;20122;-76
2021/09/28 21:57:09;;;;;;;5.53;5.03;;;;;;;16.28;89.90;96446.31;5204390;56;20223;-75
2021/09/28 22:02:11;;;;;;;6.22;5.55;;;;;;;16.14;89.98;96441.66;5221573;56;20205;-76
2021/09/28 22:07:14;;;;;;;5.90;5.30;;;;;;;16.02;91.26;96446.38;5211002;56;20525;-75
2021/09/28 22:12:16;;;;;;;5.88;5.25;;;;;;;16.19;90.15;96438.88;5214333;56;20122;-75
2021/09/28 22:17:24;;;;;;;7.32;5.63;;;;;;;16.26;89.54;96444.00;5216444;56;20122;-76
2021/09/28 22:22:27;;;;;;;6.30;5.68;;;;;;;16.31;90.30;96440.50;5212157;56;20223;-75
2021/09/28 22:27:29;;;;;;;8.85;6.15;;;;;;;16.14;90.30;96436.84;5226531;56;20672;-75
2021/09/28 22:32:32;;;;;;;7.30;5.88;;;;;;;16.18;89.83;96426.22;5216157;56;20645;-76
2021/09/28 22:37:34;;;;;;;6.68;6.07;;;;;;;16.03;90.92;96422.84;5222988;56;20764;-76
2021/09/28 22:42:37;;;;;;;7.88;6.28;;;;;;;16.11;90.51;96429.47;5222358;56;20210;-75
2021/09/28 22:47:40;;;;;;;8.63;6.22;;;;;;;15.92;92.40;96427.56;5219888;56;20118;-76
2021/09/28 22:52:42;;;;;;;8.02;6.15;;;;;;;15.90;92.09;96424.50;5222899;56;20238;-76
2021/09/28 22:57:45;;;;;;;7.60;6.80;;;;;;;15.94;91.49;96433.41;5222518;56;20735;-76
2021/09/28 23:02:47;;;;;;;7.45;6.68;;;;;;;15.68;93.54;96428.63;5222568;56;20642;-75
2021/09/28 23:07:50;;;;;;;9.07;7.18;;;;;;;15.87;92.44;96431.06;5213625;56;20135;-75
2021/09/28 23:12:53;;;;;;;7.20;6.07;;;;;;;15.97;91.81;96427.59;5213794;56;20118;-75
2021/09/28 23:17:55;;;;;;;7.03;6.25;;;;;;;15.90;92.41;96424.50;5212969;56;20126;-76
2021/09/28 23:22:58;;;;;;;6.60;5.50;;;;;;;15.95;92.01;96407.03;5219522;56;20183;-76
2021/09/28 23:28:00;;;;;;;7.53;6.10;;;;;;;15.91;92.03;96398.91;5192620;57;20186;-76
2021/09/28 23:33:02;;;;;;;7.38;6.32;;;;;;;15.93;92.32;96403.97;5192461;57;20771;-77
2021/09/28 23:38:06;;;;;;;8.05;6.35;;;;;;;15.91;92.15;96415.63;5183182;57;20128;-76
2021/09/28 23:43:10;;;;;;;7.97;6.38;;;;;;;15.81;93.54;96400.34;5201067;57;20245;-76
2021/09/28 23:48:13;;;;;;;8.55;6.63;;;;;;;15.68;94.37;96427.84;5191995;57;20119;-77
2021/09/28 23:53:15;;;;;;;8.02;6.22;;;;;;;15.69;96.15;96413.41;5191609;57;20146;-75
2021/09/28 23:58:18;;;;;;;9.45;6.40;;;;;;;15.62;96.15;96399.97;5191272;57;20129;-76
